New Richmond, WI

10:57 PM CDT on April 28, 2017 (GMT -0500)
New Richmond Municipal

Weather History for KRNH - March, 2014

Change the Weather History Date:

Wednesday, March 5, 2014

  Actual Average (KSTP) Record (KSTP)
Temperature  
Mean Temperature 14 °F -  
Max Temperature 21 °F 28 °F 55 °F (2017)
Min Temperature 6 °F 15 °F -6 °F (2003)
Degree Days  
Heating Degree Days 52    
Moisture  
Dew Point 4 °F    
Average Humidity 64    
Maximum Humidity 75    
Minimum Humidity 50    
Precipitation  
Precipitation 0.00 in - - ()
Sea Level Pressure  
Sea Level Pressure 30.38 in    
Wind  
Wind Speed 6 mph (East)    
Max Wind Speed 12 mph    
Max Gust Speed -    
Visibility 10 miles    
Events      
Averages and records for this station are not official NWS values.
T = Trace of Precipitation, MM = Missing Value Source: NWS Daily Summary

Daily Weather History Graph

Daily Weather History Graph

Search for Another Location

Airport or City:

Trip Planner

Search our weather history database for the weather conditions in past years. The results will help you decide how hot, cold, wet, or windy it might be!

Date:

Astronomy

Mar. 05, 2014 Rise Set
Actual Time 6:40 AM CST 6:02 PM CST
Civil Twilight 6:11 AM CST 6:32 PM CST
Nautical Twilight 5:37 AM CST 7:06 PM CST
Astronomical Twilight 5:03 AM CST 7:40 PM CST
Moon 8:53 AM CST (3/5) 11:27 PM CST (3/5)
Length of Visible Light 12h 20m
Length of Day
11h 21m
Waxing Crescent, 23% of the Moon is Illuminated
Mar 5
Waxing Crescent
Mar 8
First Quarter
Mar 16
Full
Mar 23
Last Quarter
Mar 30
New

Hourly Weather History & Observations

Time (CST) Temp. Windchill Dew Point Humidity Pressure Visibility Wind Dir Wind Speed Gust Speed Precip Events Conditions
12:15 AM 11.3 °F 1.9 °F 4.3 °F 73% 30.29 in 10.0 mi NE 5.8 mph - N/A   Overcast
12:35 AM 11.7 °F 3.7 °F 4.6 °F 73% 30.30 in 10.0 mi NE 4.6 mph - N/A   Overcast
12:55 AM 12.6 °F 6.5 °F 5.0 °F 72% 30.30 in 10.0 mi NE 3.5 mph - N/A   Overcast
1:15 AM 12.6 °F 4.8 °F 5.4 °F 73% 30.30 in 10.0 mi NE 4.6 mph - N/A   Overcast
1:35 AM 14.0 °F 3.9 °F 4.8 °F 67% 30.31 in 10.0 mi ENE 6.9 mph - N/A   Overcast
1:55 AM 13.8 °F 4.9 °F 4.8 °F 67% 30.32 in 10.0 mi ENE 5.8 mph - N/A   Overcast
2:15 AM 13.8 °F 3.7 °F 4.8 °F 67% 30.32 in 10.0 mi ENE 6.9 mph - N/A   Overcast
2:35 AM 13.6 °F 3.5 °F 5.0 °F 68% 30.33 in 10.0 mi East 6.9 mph - N/A   Overcast
2:55 AM 13.8 °F 1.0 °F 5.0 °F 68% 30.33 in 10.0 mi East 10.4 mph - N/A   Overcast
3:15 AM 13.5 °F 3.3 °F 4.8 °F 68% 30.33 in 10.0 mi East 6.9 mph - N/A   Mostly Cloudy
3:35 AM 13.1 °F 1.8 °F 4.6 °F 69% 30.34 in 10.0 mi East 8.1 mph - N/A   Scattered Clouds
3:55 AM 12.7 °F 2.4 °F 4.3 °F 69% 30.34 in 10.0 mi East 6.9 mph - N/A   Clear
4:15 AM 12.2 °F 4.3 °F 4.1 °F 70% 30.34 in 10.0 mi East 4.6 mph - N/A   Clear
4:35 AM 11.8 °F 2.5 °F 3.9 °F 71% 30.35 in 10.0 mi East 5.8 mph - N/A   Clear
4:55 AM 11.8 °F 2.5 °F 3.9 °F 71% 30.35 in 10.0 mi ENE 5.8 mph - N/A   Clear
5:04 AM 10.4 °F -0.4 °F 3.2 °F 73% 30.36 in 10.0 mi ENE 6.9 mph - N/A   Clear
5:15 AM 10.9 °F 0.2 °F 3.2 °F 71% 30.36 in 10.0 mi ENE 6.9 mph - N/A   Clear
5:35 AM 10.4 °F 0.8 °F 3.0 °F 72% 30.37 in 10.0 mi East 5.8 mph - N/A   Clear
5:55 AM 9.1 °F -0.7 °F 2.1 °F 73% 30.37 in 10.0 mi East 5.8 mph - N/A   Clear
6:15 AM 8.4 °F -0.1 °F 1.4 °F 73% 30.38 in 10.0 mi East 4.6 mph - N/A   Clear
6:35 AM 7.5 °F -2.6 °F 1.2 °F 75% 30.39 in 10.0 mi East 5.8 mph - N/A   Clear
6:55 AM 6.4 °F -2.4 °F -0.2 °F 74% 30.40 in 10.0 mi ENE 4.6 mph - N/A   Clear
7:15 AM 7.7 °F -2.4 °F 1.2 °F 75% 30.41 in 10.0 mi East 5.8 mph - N/A   Clear
7:35 AM 8.6 °F -2.6 °F 1.4 °F 73% 30.41 in 10.0 mi East 6.9 mph - N/A   Clear
7:55 AM 8.6 °F -5.5 °F 1.4 °F 73% 30.41 in 10.0 mi East 10.4 mph - N/A   Clear
8:15 AM 9.0 °F -4.2 °F 1.4 °F 71% 30.42 in 10.0 mi East 9.2 mph - N/A   Clear
8:35 AM 10.2 °F -3.5 °F 2.3 °F 70% 30.42 in 10.0 mi East 10.4 mph - N/A   Clear
8:55 AM 11.3 °F -2.2 °F 3.0 °F 69% 30.43 in 10.0 mi East 10.4 mph - N/A   Clear
9:15 AM 12.4 °F 0.9 °F 3.9 °F 69% 30.44 in 10.0 mi ESE 8.1 mph - N/A   Clear
9:35 AM 13.5 °F 2.2 °F 4.6 °F 68% 30.45 in 10.0 mi East 8.1 mph - N/A   Clear
9:55 AM 14.4 °F 1.6 °F 5.0 °F 66% 30.46 in 10.0 mi East 10.4 mph - N/A   Clear
10:15 AM 14.9 °F 1.6 °F 5.7 °F 67% 30.46 in 10.0 mi East 11.5 mph - N/A   Clear
10:35 AM 15.8 °F 3.4 °F 6.3 °F 66% 30.46 in 10.0 mi East 10.4 mph - N/A   Clear
10:55 AM 16.5 °F 5.1 °F 6.8 °F 66% 30.46 in 10.0 mi East 9.2 mph - N/A   Clear
11:15 AM 17.4 °F 8.0 °F 7.2 °F 64% 30.45 in 10.0 mi ESE 6.9 mph - N/A   Clear
11:35 AM 18.3 °F 9.1 °F 7.5 °F 63% 30.45 in 10.0 mi ESE 6.9 mph - N/A   Clear
11:55 AM 19.0 °F 10.0 °F 7.7 °F 61% 30.45 in 10.0 mi ESE 6.9 mph - N/A   Clear
12:15 PM 19.2 °F 9.3 °F 7.5 °F 60% 30.45 in 10.0 mi East 8.1 mph - N/A   Clear
12:35 PM 19.4 °F 10.4 °F 7.5 °F 60% 30.44 in 10.0 mi East 6.9 mph - N/A   Clear
12:55 PM 19.9 °F 11.1 °F 7.7 °F 59% 30.44 in 10.0 mi East 6.9 mph - N/A   Clear
1:15 PM 20.7 °F 11.9 °F 8.2 °F 59% 30.42 in 10.0 mi SE 6.9 mph - N/A   Clear
1:35 PM 20.8 °F 13.2 °F 8.2 °F 58% 30.42 in 10.0 mi ESE 5.8 mph - N/A   Clear
1:55 PM 21.2 °F 12.6 °F 8.2 °F 57% 30.41 in 10.0 mi East 6.9 mph - N/A   Clear
2:15 PM 21.2 °F 10.9 °F 7.9 °F 57% 30.42 in 10.0 mi East 9.2 mph - N/A   Clear
2:35 PM 21.6 °F 11.3 °F 7.5 °F 55% 30.42 in 10.0 mi East 9.2 mph - N/A   Clear
2:55 PM 21.7 °F 13.2 °F 7.3 °F 54% 30.42 in 10.0 mi ESE 6.9 mph - N/A   Clear
3:15 PM 21.7 °F 14.3 °F 6.6 °F 52% 30.42 in 10.0 mi ESE 5.8 mph - N/A   Clear
3:35 PM 21.7 °F 14.3 °F 6.4 °F 52% 30.41 in 10.0 mi SE 5.8 mph - N/A   Clear
3:55 PM 21.4 °F 13.8 °F 6.3 °F 52% 30.41 in 10.0 mi ESE 5.8 mph - N/A   Clear
4:15 PM 21.2 °F 12.6 °F 5.7 °F 51% 30.40 in 10.0 mi SE 6.9 mph - N/A   Clear
4:35 PM 20.7 °F 11.9 °F 5.9 °F 53% 30.39 in 10.0 mi SE 6.9 mph - N/A   Clear
4:55 PM 20.3 °F 12.5 °F 5.4 °F 52% 30.39 in 10.0 mi SE 5.8 mph - N/A   Clear
5:15 PM 19.4 °F 12.8 °F 4.6 °F 53% 30.39 in 10.0 mi ESE 4.6 mph - N/A   Clear
5:35 PM 18.7 °F 11.9 °F 2.8 °F 50% 30.38 in 10.0 mi ESE 4.6 mph - N/A   Clear
5:55 PM 17.4 °F 10.4 °F 2.3 °F 52% 30.39 in 10.0 mi ESE 4.6 mph - N/A   Clear
6:15 PM 16.3 °F 9.2 °F 1.8 °F 53% 30.38 in 10.0 mi ESE 4.6 mph - N/A   Clear
6:35 PM 15.1 °F 7.7 °F 1.6 °F 55% 30.38 in 10.0 mi SE 4.6 mph - N/A   Clear
6:55 PM 12.9 °F 6.9 °F 1.0 °F 59% 30.39 in 10.0 mi East 3.5 mph - N/A   Clear
7:15 PM 11.7 °F 5.5 °F 0.7 °F 61% 30.39 in 10.0 mi East 3.5 mph - N/A   Clear
7:35 PM 10.9 °F 2.9 °F 0.3 °F 62% 30.39 in 10.0 mi East 4.6 mph - N/A   Clear
7:55 PM 11.1 °F 3.1 °F 0.1 °F 61% 30.38 in 10.0 mi ESE 4.6 mph - N/A   Clear
8:10 PM 12.0 °F 2.7 °F 0.5 °F 60% 30.37 in 10.0 mi ESE 5.8 mph - N/A   Clear
8:35 PM 11.8 °F 2.5 °F 0.3 °F 60% 30.37 in 10.0 mi ESE 5.8 mph - N/A   Clear
8:55 PM 11.1 °F 1.7 °F 0.1 °F 61% 30.36 in 10.0 mi ESE 5.8 mph - N/A   Clear
9:15 PM 10.9 °F 1.4 °F -0.0 °F 61% 30.36 in 10.0 mi ESE 5.8 mph - N/A   Clear
9:35 PM 10.8 °F 0.0 °F 0.5 °F 63% 30.35 in 10.0 mi SE 6.9 mph - N/A   Clear
9:55 PM 10.8 °F -1.1 °F 0.3 °F 63% 30.36 in 10.0 mi SE 8.1 mph - N/A   Clear
10:15 PM 10.4 °F -1.5 °F -0.0 °F 63% 30.35 in 10.0 mi SE 8.1 mph - N/A   Clear
10:35 PM 9.9 °F -1.1 °F -0.4 °F 63% 30.34 in 10.0 mi SE 6.9 mph - N/A   Clear
10:55 PM 10.8 °F 0.0 °F -0.4 °F 61% 30.36 in 10.0 mi SE 6.9 mph - N/A   Clear
11:15 PM 11.3 °F 0.7 °F -0.6 °F 59% 30.35 in 10.0 mi SE 6.9 mph - N/A   Clear
11:35 PM 10.0 °F -0.9 °F -1.1 °F 61% 30.35 in 10.0 mi SE 6.9 mph - N/A   Clear
11:55 PM 9.1 °F -3.0 °F -1.3 °F 63% 30.34 in 10.0 mi SE 8.1 mph - N/A   Clear